Time;durP1;ratioP1;P1;durP2;ratioP2;P2;SDS_P1;SDS_P2;PMS_P1;PMS_P2;Temp;Humidity;BMP_temperature;BMP_pressure;BME280_temperature;BME280_humidity;BME280_pressure;Samples;Min_cycle;Max_cycle;Signal;HPM_P1;HPM_P2
2021/07/26 00:00:40;;;;;;;22.35;15.05;;;19.70;99.90;;;;;;5028710;28;20116;-73
2021/07/26 00:03:05;;;;;;;24.45;15.48;;;19.70;99.90;;;;;;5030369;28;20084;-75
2021/07/26 00:05:31;;;;;;;19.55;14.80;;;19.80;99.90;;;;;;5031740;28;20107;-75
2021/07/26 00:07:57;;;;;;;22.00;15.50;;;19.80;99.90;;;;;;5030995;28;20072;-75
2021/07/26 00:10:22;;;;;;;23.10;15.85;;;19.80;99.90;;;;;;5035740;28;20029;-74
2021/07/26 00:12:48;;;;;;;21.33;15.90;;;19.80;99.90;;;;;;5030959;28;20021;-74
2021/07/26 00:15:15;;;;;;;23.33;16.02;;;19.80;99.90;;;;;;5029944;28;20021;-75
2021/07/26 00:17:41;;;;;;;21.50;15.48;;;19.80;99.90;;;;;;5030973;28;20021;-74
2021/07/26 00:20:07;;;;;;;26.75;16.17;;;19.90;99.90;;;;;;5030052;28;20021;-74
2021/07/26 00:22:33;;;;;;;24.75;16.33;;;19.90;99.90;;;;;;5029961;28;20033;-74
2021/07/26 00:24:59;;;;;;;22.90;16.48;;;19.90;99.90;;;;;;5028094;28;20112;-74
2021/07/26 00:27:24;;;;;;;28.80;16.15;;;19.90;99.90;;;;;;5031308;28;20473;-74
2021/07/26 00:29:50;;;;;;;23.58;17.20;;;19.90;99.90;;;;;;5029954;28;20030;-74
2021/07/26 00:32:15;;;;;;;24.33;16.77;;;19.90;99.90;;;;;;5028441;28;20018;-74
2021/07/26 00:34:41;;;;;;;22.38;15.85;;;19.90;99.90;;;;;;5030326;28;20033;-74
2021/07/26 00:37:06;;;;;;;21.95;16.17;;;19.90;99.90;;;;;;5029909;28;20496;-74
2021/07/26 00:39:34;;;;;;;25.88;17.08;;;19.90;99.90;;;;;;5030690;28;20052;-74
2021/07/26 00:42:00;;;;;;;24.52;17.23;;;19.90;99.90;;;;;;5028333;28;20044;-75
2021/07/26 00:44:30;;;;;;;26.88;16.52;;;19.90;99.90;;;;;;5027632;28;20037;-74
2021/07/26 00:46:56;;;;;;;26.38;17.02;;;19.90;99.90;;;;;;5031411;28;20041;-75
2021/07/26 00:49:23;;;;;;;24.70;16.90;;;19.90;99.90;;;;;;5031617;28;20024;-75
2021/07/26 00:51:51;;;;;;;24.08;16.90;;;20.00;99.90;;;;;;5029142;28;20033;-74
2021/07/26 00:54:24;;;;;;;26.55;18.48;;;20.00;99.90;;;;;;5031186;28;20310;-74
2021/07/26 00:56:51;;;;;;;23.77;17.10;;;20.00;99.90;;;;;;5028200;28;21022;-75
2021/07/26 00:59:17;;;;;;;27.20;18.80;;;20.00;99.90;;;;;;5028311;28;20384;-74
2021/07/26 01:01:42;;;;;;;24.23;17.42;;;20.00;99.90;;;;;;5029642;28;20037;-75
2021/07/26 01:04:08;;;;;;;26.27;18.40;;;20.00;99.90;;;;;;5029981;28;20040;-74
2021/07/26 01:06:34;;;;;;;28.15;18.73;;;20.00;99.90;;;;;;5029996;28;20046;-73
2021/07/26 01:09:01;;;;;;;32.78;18.42;;;20.00;99.90;;;;;;5030648;28;20030;-73
2021/07/26 01:11:26;;;;;;;32.22;18.77;;;20.00;99.90;;;;;;5028336;28;20036;-73
2021/07/26 01:13:52;;;;;;;27.10;17.50;;;20.00;99.90;;;;;;5027959;28;20021;-73
2021/07/26 01:16:18;;;;;;;31.10;18.00;;;20.00;99.90;;;;;;5030046;28;20033;-73
2021/07/26 01:18:44;;;;;;;27.90;18.02;;;20.00;99.90;;;;;;5028705;28;20045;-73
2021/07/26 01:21:15;;;;;;;24.83;17.50;;;19.90;99.90;;;;;;5028032;28;20124;-73
2021/07/26 01:23:46;;;;;;;27.35;18.88;;;19.90;99.90;;;;;;5029640;28;20326;-73
2021/07/26 01:26:14;;;;;;;24.98;16.38;;;19.90;99.90;;;;;;5027734;28;20037;-73
2021/07/26 01:28:42;;;;;;;25.90;17.10;;;19.90;99.90;;;;;;5026457;28;20033;-73
2021/07/26 01:31:10;;;;;;;24.83;17.77;;;19.90;99.90;;;;;;5028219;28;20026;-74
2021/07/26 01:33:36;;;;;;;25.55;18.23;;;19.90;99.90;;;;;;5027991;28;20060;-74
2021/07/26 01:36:02;;;;;;;23.50;17.30;;;19.80;99.90;;;;;;5028872;28;20029;-74
2021/07/26 01:38:28;;;;;;;26.20;17.83;;;19.80;99.90;;;;;;5028142;28;20025;-74
2021/07/26 01:40:55;;;;;;;26.80;16.85;;;19.80;99.90;;;;;;5028945;28;20032;-74
2021/07/26 01:43:25;;;;;;;25.60;18.25;;;19.80;99.90;;;;;;5032152;28;20108;-74
2021/07/26 01:46:24;;;;;;;27.80;17.42;;;19.80;99.90;;;;;;5029110;28;20025;-74
2021/07/26 01:48:59;;;;;;;23.70;17.35;;;19.80;99.90;;;;;;5019397;28;20137;-75
2021/07/26 01:51:43;;;;;;;25.08;17.10;;;19.80;99.90;;;;;;5027404;28;20037;-74
2021/07/26 01:54:09;;;;;;;20.42;15.77;;;19.80;99.90;;;;;;5022816;28;20488;-74
2021/07/26 01:56:34;;;;;;;24.33;16.55;;;19.80;99.90;;;;;;5028023;28;20076;-74
2021/07/26 01:59:01;;;;;;;22.52;16.58;;;19.80;99.90;;;;;;5028830;28;20230;-74
2021/07/26 02:01:26;;;;;;;25.90;17.05;;;19.80;99.90;;;;;;5028718;28;20049;-74
2021/07/26 02:03:52;;;;;;;24.90;16.77;;;19.80;99.90;;;;;;5026401;28;20025;-74
2021/07/26 02:06:17;;;;;;;21.77;16.50;;;19.80;99.90;;;;;;5028474;28;20061;-74
2021/07/26 02:08:43;;;;;;;24.10;16.77;;;19.80;99.90;;;;;;5027882;28;20132;-74
2021/07/26 02:11:08;;;;;;;26.98;16.83;;;19.70;99.90;;;;;;5043047;28;20017;-74
2021/07/26 02:13:36;;;;;;;23.38;16.65;;;19.70;99.90;;;;;;5027373;28;20026;-74
2021/07/26 02:16:02;;;;;;;22.15;16.67;;;19.70;99.90;;;;;;5027279;28;20014;-74
2021/07/26 02:18:28;;;;;;;21.73;16.42;;;19.70;99.90;;;;;;5028490;28;20101;-74
2021/07/26 02:20:53;;;;;;;27.58;16.58;;;19.70;99.90;;;;;;5028512;28;20021;-75
2021/07/26 02:23:18;;;;;;;23.75;17.52;;;19.70;99.90;;;;;;5028407;28;20032;-75
2021/07/26 02:25:44;;;;;;;21.55;15.73;;;19.70;99.90;;;;;;5026801;28;20026;-74
2021/07/26 02:28:09;;;;;;;24.55;17.02;;;19.70;99.90;;;;;;5027776;28;20530;-74
2021/07/26 02:30:35;;;;;;;21.15;15.82;;;19.60;99.90;;;;;;5029802;28;20071;-74
2021/07/26 02:33:01;;;;;;;24.38;16.45;;;19.60;99.90;;;;;;5025149;28;20069;-74
2021/07/26 02:35:30;;;;;;;24.23;17.23;;;19.60;99.90;;;;;;5026149;28;20091;-74
2021/07/26 02:37:57;;;;;;;22.45;16.52;;;19.60;99.90;;;;;;5030038;28;20052;-74
2021/07/26 02:40:22;;;;;;;23.92;17.08;;;19.50;99.90;;;;;;5028400;28;20079;-74
2021/07/26 02:42:48;;;;;;;24.58;16.80;;;19.50;99.90;;;;;;5027164;28;20037;-74
2021/07/26 02:45:13;;;;;;;24.42;16.75;;;19.50;99.90;;;;;;5026741;28;20120;-74
2021/07/26 02:47:39;;;;;;;22.95;16.98;;;19.50;99.90;;;;;;5026419;28;20034;-74
2021/07/26 02:50:05;;;;;;;23.13;16.95;;;19.40;99.90;;;;;;5027333;28;20431;-74
2021/07/26 02:52:30;;;;;;;23.65;16.67;;;19.40;99.90;;;;;;5028903;28;20116;-74
2021/07/26 02:54:56;;;;;;;22.83;16.83;;;19.40;99.90;;;;;;5028479;28;20236;-74
2021/07/26 02:57:22;;;;;;;22.02;16.55;;;19.40;99.90;;;;;;5035023;28;20017;-74
2021/07/26 02:59:47;;;;;;;23.02;17.13;;;19.30;99.90;;;;;;5026341;28;20034;-75
2021/07/26 03:02:12;;;;;;;23.55;16.85;;;19.30;99.90;;;;;;5031461;28;20021;-74
2021/07/26 03:04:38;;;;;;;23.58;17.83;;;19.40;99.90;;;;;;5029543;28;20112;-74
2021/07/26 03:07:04;;;;;;;25.80;18.25;;;19.30;99.90;;;;;;5027534;28;20053;-74
2021/07/26 03:09:29;;;;;;;24.83;18.75;;;19.30;99.90;;;;;;5035826;28;20060;-74
2021/07/26 03:11:54;;;;;;;24.98;16.90;;;19.30;99.90;;;;;;5030000;28;20583;-74
2021/07/26 03:14:20;;;;;;;24.85;17.25;;;19.40;99.90;;;;;;5029994;28;20068;-74
2021/07/26 03:16:45;;;;;;;24.45;17.35;;;19.40;99.90;;;;;;5031247;28;20025;-74
2021/07/26 03:19:11;;;;;;;26.73;18.05;;;19.40;99.90;;;;;;5031082;28;20087;-74
2021/07/26 03:21:37;;;;;;;25.55;18.60;;;19.40;99.90;;;;;;5031615;28;20056;-74
2021/07/26 03:24:03;;;;;;;25.17;18.77;;;19.40;99.90;;;;;;5031433;28;20064;-75
2021/07/26 03:26:28;;;;;;;25.48;18.02;;;19.40;99.90;;;;;;5030602;28;20556;-74
2021/07/26 03:28:53;;;;;;;26.20;19.98;;;19.40;99.90;;;;;;5025782;28;20033;-74
2021/07/26 03:31:19;;;;;;;26.70;19.55;;;19.40;99.90;;;;;;5028970;28;20435;-74
2021/07/26 03:33:45;;;;;;;28.55;18.95;;;19.40;99.90;;;;;;5031724;28;20033;-74
2021/07/26 03:36:12;;;;;;;25.30;19.50;;;19.40;99.90;;;;;;5030259;28;20037;-74
2021/07/26 03:38:38;;;;;;;23.33;17.77;;;19.40;99.90;;;;;;5030468;28;20480;-75
2021/07/26 03:41:03;;;;;;;25.77;18.80;;;19.50;99.90;;;;;;5031150;28;20018;-74
2021/07/26 03:43:30;;;;;;;25.10;19.15;;;19.40;99.90;;;;;;5030758;28;20385;-74
2021/07/26 03:45:55;;;;;;;27.15;19.05;;;19.40;99.90;;;;;;5031582;28;20021;-74
2021/07/26 03:48:21;;;;;;;26.85;18.63;;;19.40;99.90;;;;;;5031297;28;20032;-75
2021/07/26 03:50:46;;;;;;;24.20;18.40;;;19.40;99.90;;;;;;5029387;28;20160;-74
2021/07/26 03:53:12;;;;;;;24.23;18.30;;;19.40;99.90;;;;;;5031754;28;20038;-75
2021/07/26 03:55:37;;;;;;;23.52;18.23;;;19.50;99.90;;;;;;5030303;28;20559;-74
2021/07/26 03:58:03;;;;;;;24.63;18.67;;;19.40;99.90;;;;;;5029500;28;20140;-75
2021/07/26 04:00:31;;;;;;;24.25;17.45;;;19.40;99.90;;;;;;5030370;28;21755;-74
2021/07/26 04:03:12;;;;;;;26.17;18.67;;;19.40;99.90;;;;;;5031861;28;20504;-74
2021/07/26 04:05:58;;;;;;;26.48;20.20;;;19.40;99.90;;;;;;5024904;28;20134;-75
2021/07/26 04:08:27;;;;;;;24.30;18.77;;;19.40;99.90;;;;;;5020367;28;20038;-74
2021/07/26 04:11:04;;;;;;;26.98;17.92;;;19.50;99.90;;;;;;5033213;28;20032;-74
2021/07/26 04:13:33;;;;;;;24.80;18.10;;;19.50;99.90;;;;;;5026136;28;20046;-75
2021/07/26 04:15:59;;;;;;;29.05;19.23;;;19.50;99.90;;;;;;5031947;28;20037;-75
2021/07/26 04:18:25;;;;;;;23.52;18.45;;;19.50;99.90;;;;;;5029774;28;20099;-75
2021/07/26 04:20:52;;;;;;;26.23;18.58;;;19.50;99.90;;;;;;5031480;28;20033;-74
2021/07/26 04:23:17;;;;;;;28.27;19.02;;;19.50;99.90;;;;;;5029190;28;20388;-75
2021/07/26 04:25:43;;;;;;;25.88;18.75;;;19.60;99.90;;;;;;5030207;28;20022;-75
2021/07/26 04:28:08;;;;;;;26.77;18.55;;;19.60;99.90;;;;;;5029262;28;20097;-75
2021/07/26 04:30:34;;;;;;;23.05;18.35;;;19.60;99.90;;;;;;5030323;28;20396;-75
2021/07/26 04:32:59;;;;;;;25.48;19.33;;;19.60;99.90;;;;;;5029991;28;20017;-75
2021/07/26 04:35:25;;;;;;;26.90;19.23;;;19.70;99.90;;;;;;5029640;28;20108;-75
2021/07/26 04:37:50;;;;;;;27.15;19.88;;;19.70;99.90;;;;;;5029355;28;20125;-75
2021/07/26 04:40:16;;;;;;;32.90;20.92;;;19.70;99.90;;;;;;5031169;28;20119;-76
2021/07/26 04:42:43;;;;;;;27.80;20.70;;;19.80;99.90;;;;;;5034243;28;20026;-76
2021/07/26 04:45:09;;;;;;;32.72;22.55;;;19.90;99.90;;;;;;5028761;28;20038;-76
2021/07/26 04:47:35;;;;;;;27.67;21.00;;;19.90;99.90;;;;;;5029789;28;20037;-76
2021/07/26 04:50:01;;;;;;;31.17;22.02;;;19.90;99.90;;;;;;5028159;28;20502;-76
2021/07/26 04:52:27;;;;;;;31.60;21.58;;;19.90;99.90;;;;;;5027896;28;20053;-76
2021/07/26 04:54:52;;;;;;;29.35;20.75;;;20.00;99.90;;;;;;5028533;28;20029;-76
2021/07/26 04:57:18;;;;;;;30.35;22.40;;;20.00;99.90;;;;;;5029948;28;20026;-76
2021/07/26 04:59:44;;;;;;;31.17;21.30;;;20.00;99.90;;;;;;5028778;28;20026;-75
2021/07/26 05:02:10;;;;;;;36.22;24.40;;;20.00;99.90;;;;;;5029925;28;20451;-75
2021/07/26 05:04:35;;;;;;;41.05;24.35;;;20.10;99.90;;;;;;5029136;28;20025;-75
2021/07/26 05:07:02;;;;;;;39.90;23.90;;;20.10;99.90;;;;;;5029901;28;20057;-74
2021/07/26 05:09:28;;;;;;;34.25;24.05;;;20.10;99.90;;;;;;5031261;28;20485;-75
2021/07/26 05:12:01;;;;;;;42.05;25.13;;;20.20;99.90;;;;;;5030204;28;20029;-74
2021/07/26 05:14:27;;;;;;;34.60;24.20;;;20.30;99.90;;;;;;5029932;28;20038;-75
2021/07/26 05:16:52;;;;;;;38.83;24.02;;;20.30;99.90;;;;;;5027644;28;20049;-75
2021/07/26 05:19:18;;;;;;;41.83;23.85;;;20.30;99.90;;;;;;5027424;28;20088;-74
2021/07/26 05:21:43;;;;;;;43.33;24.90;;;20.30;99.90;;;;;;5029949;28;20029;-75
2021/07/26 05:24:09;;;;;;;37.85;24.25;;;20.40;99.90;;;;;;5026538;28;20025;-75
2021/07/26 05:26:34;;;;;;;37.70;25.52;;;20.50;99.90;;;;;;5028909;28;20029;-74
2021/07/26 05:29:00;;;;;;;33.28;23.85;;;20.50;99.90;;;;;;5028245;28;20025;-74
2021/07/26 05:31:25;;;;;;;36.08;24.60;;;20.60;99.90;;;;;;5029559;28;20025;-75
2021/07/26 05:33:51;;;;;;;34.70;23.85;;;20.70;99.90;;;;;;5036575;28;20396;-74
2021/07/26 05:36:16;;;;;;;35.53;24.02;;;20.70;99.90;;;;;;5032686;28;20029;-75
2021/07/26 05:38:42;;;;;;;37.08;24.58;;;20.80;99.90;;;;;;5032259;28;20500;-75
2021/07/26 05:41:08;;;;;;;40.67;23.73;;;20.90;99.90;;;;;;5029716;28;20013;-75
2021/07/26 05:43:34;;;;;;;38.40;25.45;;;20.90;99.90;;;;;;5030093;28;20252;-75
2021/07/26 05:46:00;;;;;;;35.30;24.83;;;21.00;99.90;;;;;;5031012;28;20388;-75
2021/07/26 05:48:26;;;;;;;36.78;25.02;;;21.00;99.90;;;;;;5033277;28;20041;-74
2021/07/26 05:50:51;;;;;;;34.28;24.25;;;21.10;99.90;;;;;;5029444;28;20029;-75
2021/07/26 05:53:17;;;;;;;38.30;24.38;;;21.10;99.90;;;;;;5032266;28;20430;-75
2021/07/26 05:55:42;;;;;;;33.35;24.23;;;21.10;99.90;;;;;;5030101;28;20559;-75
2021/07/26 05:58:07;;;;;;;35.45;24.70;;;21.10;99.90;;;;;;5029636;28;20025;-75
2021/07/26 06:00:40;;;;;;;35.33;24.45;;;21.20;99.90;;;;;;5030994;28;20032;-74
2021/07/26 06:03:05;;;;;;;33.08;24.20;;;21.20;99.90;;;;;;5025201;28;20053;-74
2021/07/26 06:05:31;;;;;;;32.90;23.40;;;21.20;99.90;;;;;;5029734;28;20070;-75
2021/07/26 06:07:56;;;;;;;31.13;23.30;;;21.20;99.90;;;;;;5027888;28;20476;-75
2021/07/26 06:10:22;;;;;;;34.17;25.17;;;21.20;99.90;;;;;;5026827;28;20128;-74
2021/07/26 06:12:47;;;;;;;35.22;25.10;;;21.30;99.90;;;;;;5021849;28;20041;-77
2021/07/26 06:15:13;;;;;;;33.88;24.77;;;21.30;99.90;;;;;;5027367;28;20037;-75
2021/07/26 06:17:38;;;;;;;35.80;24.83;;;21.30;99.90;;;;;;5027333;28;20029;-73
2021/07/26 06:20:06;;;;;;;36.63;25.13;;;21.30;99.90;;;;;;5023529;28;20025;-76
2021/07/26 06:22:31;;;;;;;32.70;24.75;;;21.30;99.90;;;;;;5027167;28;20029;-76
2021/07/26 06:24:57;;;;;;;32.15;24.52;;;21.30;99.90;;;;;;5025484;28;20484;-76
2021/07/26 06:27:22;;;;;;;32.92;24.80;;;21.40;99.90;;;;;;5029538;28;20037;-73
2021/07/26 06:29:52;;;;;;;40.03;25.55;;;21.40;99.90;;;;;;5028145;28;20072;-74
2021/07/26 06:32:18;;;;;;;38.22;25.80;;;21.40;99.90;;;;;;5028212;28;20523;-76
2021/07/26 06:34:43;;;;;;;38.00;26.23;;;21.50;99.90;;;;;;5026436;28;20032;-77
2021/07/26 06:37:09;;;;;;;39.25;26.02;;;21.50;99.90;;;;;;5025787;28;20511;-75
2021/07/26 06:39:34;;;;;;;35.30;24.30;;;21.60;99.90;;;;;;5028824;28;20032;-75
2021/07/26 06:42:00;;;;;;;37.30;23.80;;;21.70;99.90;;;;;;5027543;28;20457;-78
2021/07/26 06:44:26;;;;;;;34.20;23.05;;;21.70;99.90;;;;;;5025274;28;20179;-75
2021/07/26 06:46:51;;;;;;;37.75;24.05;;;21.70;99.90;;;;;;5025703;28;20042;-74
2021/07/26 06:49:17;;;;;;;31.33;22.70;;;21.80;99.90;;;;;;5026615;28;20105;-74
2021/07/26 06:51:42;;;;;;;34.70;22.08;;;21.80;99.90;;;;;;5028827;28;20656;-74
2021/07/26 06:54:08;;;;;;;29.92;22.13;;;21.90;99.90;;;;;;5026485;28;20550;-74
2021/07/26 06:56:33;;;;;;;31.85;22.83;;;21.90;99.90;;;;;;5019010;28;20101;-75
2021/07/26 06:58:59;;;;;;;31.92;22.55;;;21.90;99.90;;;;;;5024697;28;20025;-75
2021/07/26 07:01:24;;;;;;;27.48;20.08;;;21.90;99.90;;;;;;5028590;28;20544;-74
2021/07/26 07:03:50;;;;;;;27.73;20.38;;;22.00;99.90;;;;;;5028674;28;20022;-75
2021/07/26 07:06:17;;;;;;;25.77;19.30;;;22.00;99.90;;;;;;5028299;28;20412;-74
2021/07/26 07:08:43;;;;;;;25.88;19.83;;;21.90;99.90;;;;;;5028786;28;20033;-75
2021/07/26 07:11:16;;;;;;;26.05;19.42;;;21.90;99.90;;;;;;5026872;28;20029;-74
2021/07/26 07:13:47;;;;;;;28.23;19.20;;;22.00;99.90;;;;;;5028901;28;20036;-74
2021/07/26 07:16:20;;;;;;;25.83;19.63;;;22.00;99.90;;;;;;5028558;28;20041;-74
2021/07/26 07:18:47;;;;;;;30.40;21.35;;;22.00;99.90;;;;;;5026356;28;20037;-74
2021/07/26 07:21:21;;;;;;;31.42;20.83;;;22.20;99.90;;;;;;5028777;28;20097;-75
2021/07/26 07:23:48;;;;;;;29.48;20.83;;;22.30;99.90;;;;;;5029017;28;20082;-75
2021/07/26 07:26:15;;;;;;;30.42;20.42;;;22.50;99.90;;;;;;5024406;28;20690;-75
2021/07/26 07:28:40;;;;;;;30.25;20.25;;;22.60;99.90;;;;;;5028456;28;20033;-75
2021/07/26 07:31:06;;;;;;;29.50;21.10;;;22.70;99.90;;;;;;5028618;28;20026;-75
2021/07/26 07:33:31;;;;;;;30.27;21.52;;;22.70;99.90;;;;;;5028424;28;20041;-75
2021/07/26 07:36:02;;;;;;;31.52;20.42;;;22.80;99.90;;;;;;5028847;28;20030;-75
2021/07/26 07:38:28;;;;;;;31.45;19.98;;;22.80;99.90;;;;;;5027425;28;20036;-74
2021/07/26 07:40:53;;;;;;;28.33;20.33;;;22.90;99.90;;;;;;5028103;28;20026;-74
2021/07/26 07:43:19;;;;;;;29.40;21.17;;;23.00;99.90;;;;;;5028266;28;20049;-74
2021/07/26 07:45:45;;;;;;;24.13;19.33;;;23.10;99.90;;;;;;5028386;28;20031;-74
2021/07/26 07:48:11;;;;;;;31.85;21.08;;;23.10;99.90;;;;;;5028875;28;20167;-74
2021/07/26 07:50:36;;;;;;;25.80;18.20;;;23.30;99.90;;;;;;5031596;28;20127;-74
2021/07/26 07:53:03;;;;;;;27.25;19.30;;;23.40;99.90;;;;;;5028609;28;20503;-74
2021/07/26 07:55:28;;;;;;;23.27;18.35;;;23.60;99.90;;;;;;5028776;28;20041;-74
2021/07/26 07:57:54;;;;;;;28.08;19.55;;;23.70;99.90;;;;;;5030883;28;20029;-74
2021/07/26 08:00:21;;;;;;;30.77;19.08;;;23.80;99.90;;;;;;5031474;28;20033;-74
2021/07/26 08:02:47;;;;;;;21.10;17.30;;;23.90;99.90;;;;;;5031592;28;20035;-75
2021/07/26 08:05:15;;;;;;;24.77;18.15;;;23.80;99.90;;;;;;5030842;28;20392;-74
2021/07/26 08:07:41;;;;;;;24.52;17.30;;;23.80;99.90;;;;;;5031158;28;20120;-74
2021/07/26 08:10:07;;;;;;;24.65;17.20;;;23.80;99.90;;;;;;5041821;28;20021;-74
2021/07/26 08:12:33;;;;;;;25.75;16.63;;;23.80;99.90;;;;;;5034865;28;20041;-74
2021/07/26 08:14:59;;;;;;;22.33;16.35;;;23.90;99.90;;;;;;5034305;28;20070;-74
2021/07/26 08:17:25;;;;;;;22.38;12.00;;;23.90;99.90;;;;;;5024766;28;20021;-75
2021/07/26 08:19:50;;;;;;;15.25;10.63;;;24.00;99.90;;;;;;5030366;28;20072;-76
2021/07/26 08:22:16;;;;;;;15.15;11.38;;;24.00;99.90;;;;;;5028859;28;20029;-76
2021/07/26 08:24:41;;;;;;;17.48;10.93;;;24.10;99.90;;;;;;5031790;28;20123;-76
2021/07/26 08:27:07;;;;;;;17.58;9.95;;;24.20;99.90;;;;;;5029086;28;20034;-76
2021/07/26 08:29:32;;;;;;;16.83;10.07;;;24.30;99.90;;;;;;5025097;28;20034;-74
2021/07/26 08:31:58;;;;;;;12.40;9.00;;;24.30;99.90;;;;;;5027917;28;20197;-73
2021/07/26 08:34:23;;;;;;;12.57;8.57;;;24.40;99.90;;;;;;5031924;28;20383;-74
2021/07/26 08:36:48;;;;;;;11.48;8.80;;;24.50;99.90;;;;;;5030020;28;20033;-77
2021/07/26 08:39:14;;;;;;;10.90;8.77;;;24.50;99.90;;;;;;5030067;28;20021;-80
2021/07/26 08:41:41;;;;;;;10.90;8.65;;;24.50;99.90;;;;;;5030711;28;20397;-73
2021/07/26 08:44:07;;;;;;;12.70;9.07;;;24.50;99.90;;;;;;5030355;28;20029;-74
2021/07/26 08:46:34;;;;;;;12.43;9.23;;;24.60;99.90;;;;;;5027035;28;20036;-77
2021/07/26 08:49:00;;;;;;;13.85;9.48;;;24.60;99.90;;;;;;5029400;28;20041;-76
2021/07/26 08:51:27;;;;;;;12.32;9.05;;;24.70;99.90;;;;;;5035510;28;20022;-76
2021/07/26 08:53:52;;;;;;;13.00;9.40;;;24.70;99.90;;;;;;5030215;28;20032;-77
2021/07/26 08:56:18;;;;;;;11.73;8.60;;;24.70;99.90;;;;;;5028263;28;20018;-75
2021/07/26 08:58:44;;;;;;;12.98;9.43;;;24.70;99.90;;;;;;5029744;28;20061;-75
2021/07/26 09:01:13;;;;;;;10.43;7.88;;;24.60;99.90;;;;;;5028945;28;20102;-76
2021/07/26 09:03:38;;;;;;;14.32;7.90;;;24.70;99.90;;;;;;5030848;28;20163;-76
2021/07/26 09:06:04;;;;;;;16.65;9.70;;;24.80;99.90;;;;;;5031905;28;20120;-76
2021/07/26 09:08:34;;;;;;;9.57;7.80;;;24.90;99.90;;;;;;5035782;28;20029;-76
2021/07/26 09:11:01;;;;;;;11.93;8.07;;;25.00;99.90;;;;;;5032206;28;20072;-76
2021/07/26 09:13:44;;;;;;;16.65;9.85;;;25.00;99.90;;;;;;5029474;28;20030;-75
2021/07/26 09:16:20;;;;;;;17.17;11.10;;;25.00;99.90;;;;;;5027675;28;20515;-76
2021/07/26 09:18:59;;;;;;;13.27;9.52;;;25.10;99.90;;;;;;5020946;28;20072;-76
2021/07/26 09:21:51;;;;;;;21.35;10.88;;;25.20;99.90;;;;;;5023076;28;20075;-77
2021/07/26 09:24:25;;;;;;;15.45;9.82;;;25.40;99.90;;;;;;5021696;28;20369;-76
2021/07/26 09:26:51;;;;;;;14.75;10.57;;;25.50;99.90;;;;;;5028884;28;20037;-76
2021/07/26 09:29:30;;;;;;;13.75;10.48;;;25.40;99.90;;;;;;5029243;28;20030;-76
2021/07/26 09:32:00;;;;;;;13.35;10.00;;;25.30;99.90;;;;;;5029254;28;20017;-77
2021/07/26 09:34:27;;;;;;;12.95;10.32;;;25.20;99.90;;;;;;5031314;28;20091;-76
2021/07/26 09:36:53;;;;;;;16.48;11.25;;;25.20;99.90;;;;;;5029385;28;20053;-76
2021/07/26 09:39:25;;;;;;;14.13;10.07;;;25.10;99.90;;;;;;5029707;28;20112;-77
2021/07/26 09:41:52;;;;;;;14.70;10.95;;;25.10;99.90;;;;;;5027464;28;20107;-77
2021/07/26 09:44:30;;;;;;;13.48;10.10;;;25.00;99.90;;;;;;5024559;28;20048;-79
2021/07/26 09:47:31;;;;;;;14.15;10.00;;;24.90;99.90;;;;;;5029090;28;20025;-80
2021/07/26 09:49:57;;;;;;;13.60;9.60;;;24.80;99.90;;;;;;4938420;29;20031;-81
2021/07/26 09:52:41;;;;;;;12.23;8.85;;;24.90;99.90;;;;;;5006935;28;20033;-79
2021/07/26 09:55:07;;;;;;;16.77;10.73;;;24.90;99.90;;;;;;5024864;28;20029;-77
2021/07/26 09:57:33;;;;;;;15.63;9.07;;;25.00;99.90;;;;;;5026604;28;20040;-76
2021/07/26 10:00:02;;;;;;;13.10;9.35;;;25.00;99.90;;;;;;5028859;28;20025;-77
2021/07/26 10:02:28;;;;;;;15.38;9.00;;;25.00;99.90;;;;;;5027837;28;20560;-76
2021/07/26 10:04:55;;;;;;;12.85;8.88;;;25.10;99.90;;;;;;5035302;28;20124;-77
2021/07/26 10:07:20;;;;;;;16.55;9.80;;;25.10;99.90;;;;;;5029019;28;20067;-77
2021/07/26 10:09:47;;;;;;;15.27;10.63;;;25.20;99.90;;;;;;5027547;28;20543;-77
2021/07/26 10:12:18;;;;;;;15.52;10.10;;;25.30;99.90;;;;;;5029743;28;20045;-78
2021/07/26 10:14:46;;;;;;;14.38;8.57;;;25.40;99.90;;;;;;5028531;28;20041;-77
2021/07/26 10:17:13;;;;;;;11.23;8.20;;;25.40;99.90;;;;;;5025754;28;20049;-77
2021/07/26 10:19:41;;;;;;;11.23;8.80;;;25.40;99.90;;;;;;5026370;28;20585;-77
2021/07/26 10:22:11;;;;;;;10.27;8.32;;;25.40;99.90;;;;;;5028155;28;20045;-77
2021/07/26 10:24:46;;;;;;;13.15;9.45;;;25.40;99.90;;;;;;5026320;28;20025;-77
2021/07/26 10:27:29;;;;;;;13.95;8.25;;;25.50;99.90;;;;;;5027677;28;20170;-77
2021/07/26 10:29:56;;;;;;;17.73;7.20;;;25.50;99.80;;;;;;5032547;28;20061;-77
2021/07/26 10:32:38;;;;;;;10.30;6.28;;;25.60;95.80;;;;;;5030717;28;20056;-77
2021/07/26 10:35:05;;;;;;;7.03;5.93;;;25.80;92.80;;;;;;5026288;28;20021;-77
2021/07/26 10:37:39;;;;;;;9.38;6.28;;;26.00;92.10;;;;;;5028689;28;20018;-77
2021/07/26 10:40:21;;;;;;;8.55;5.63;;;26.10;92.50;;;;;;5024728;28;20041;-77
2021/07/26 10:42:47;;;;;;;8.30;5.72;;;26.30;87.30;;;;;;5028080;28;20029;-77
2021/07/26 10:45:31;;;;;;;7.57;5.22;;;26.50;86.20;;;;;;5028398;28;20037;-78
2021/07/26 10:48:22;;;;;;;6.80;5.85;;;26.80;89.40;;;;;;5024003;28;20021;-77
2021/07/26 10:50:52;;;;;;;6.63;5.80;;;26.90;82.10;;;;;;5027032;28;20033;-78
2021/07/26 10:53:35;;;;;;;9.90;5.83;;;27.00;88.00;;;;;;5028566;28;20033;-78
2021/07/26 10:56:06;;;;;;;7.72;5.90;;;27.10;83.10;;;;;;5027701;28;20041;-78
2021/07/26 10:58:37;;;;;;;6.60;5.30;;;27.30;85.50;;;;;;5026513;28;20456;-78
2021/07/26 11:01:22;;;;;;;7.57;5.38;;;27.50;83.40;;;;;;5025813;28;20038;-78
2021/07/26 11:03:52;;;;;;;7.78;5.63;;;27.70;89.60;;;;;;5028618;28;20033;-78
2021/07/26 11:06:36;;;;;;;9.75;6.70;;;27.80;79.80;;;;;;5027300;28;20665;-78
2021/07/26 11:09:20;;;;;;;10.57;6.25;;;27.90;83.80;;;;;;5031520;28;20094;-78
2021/07/26 11:11:50;;;;;;;10.40;6.13;;;28.10;75.00;;;;;;5030776;28;20160;-77
2021/07/26 11:14:16;;;;;;;8.60;5.35;;;28.30;81.00;;;;;;5027744;28;20025;-77
2021/07/26 11:16:55;;;;;;;8.05;5.70;;;28.50;72.00;;;;;;5027641;28;20029;-76
2021/07/26 11:19:37;;;;;;;5.63;5.03;;;28.70;71.80;;;;;;5026466;28;20470;-76
2021/07/26 11:22:26;;;;;;;9.07;6.03;;;28.90;70.70;;;;;;5027895;28;20037;-77
2021/07/26 11:24:55;;;;;;;7.82;5.70;;;29.10;71.70;;;;;;5015809;28;20510;-77
2021/07/26 11:27:24;;;;;;;8.00;5.53;;;29.30;68.90;;;;;;5034501;28;20039;-77
2021/07/26 11:29:51;;;;;;;8.30;5.45;;;29.70;68.80;;;;;;5032468;28;20041;-76
2021/07/26 11:32:18;;;;;;;6.57;5.32;;;30.00;63.90;;;;;;5029896;28;20029;-77
2021/07/26 11:34:44;;;;;;;7.30;5.47;;;30.10;63.80;;;;;;5030620;28;20717;-77
2021/07/26 11:37:13;;;;;;;7.97;5.57;;;30.20;65.70;;;;;;5030608;28;20037;-77
2021/07/26 11:39:53;;;;;;;6.65;5.20;;;30.50;61.60;;;;;;5028466;28;20034;-76
2021/07/26 11:42:26;;;;;;;7.15;5.35;;;30.80;60.50;;;;;;5035196;28;20029;-76
2021/07/26 11:44:53;;;;;;;8.60;5.18;;;30.90;59.20;;;;;;5028049;28;20052;-77
2021/07/26 11:47:37;;;;;;;7.72;5.47;;;31.20;61.70;;;;;;5023030;28;20065;-77
2021/07/26 11:50:05;;;;;;;7.20;5.60;;;31.40;61.00;;;;;;5026522;28;20817;-77
2021/07/26 11:52:31;;;;;;;7.10;5.25;;;31.70;63.20;;;;;;5027045;28;20052;-76
2021/07/26 11:54:56;;;;;;;9.43;5.22;;;32.30;59.60;;;;;;5026589;28;20524;-76
2021/07/26 11:57:22;;;;;;;8.00;6.03;;;32.50;58.40;;;;;;5028182;28;20477;-77
2021/07/26 11:59:51;;;;;;;8.93;6.55;;;32.10;59.50;;;;;;5032271;28;20237;-76
2021/07/26 12:02:29;;;;;;;6.67;5.77;;;31.40;57.10;;;;;;5028793;28;20033;-76
2021/07/26 12:05:07;;;;;;;7.50;5.75;;;30.80;61.00;;;;;;5031263;28;20782;-77
2021/07/26 12:07:40;;;;;;;8.10;6.20;;;30.30;60.60;;;;;;5037278;28;20079;-77
2021/07/26 12:10:06;;;;;;;6.60;5.50;;;29.80;65.00;;;;;;5033170;28;20024;-76
2021/07/26 12:12:40;;;;;;;9.13;6.20;;;29.40;67.90;;;;;;5030287;28;20144;-77
2021/07/26 12:15:26;;;;;;;8.25;5.80;;;29.10;67.90;;;;;;5029869;28;20117;-77
2021/07/26 12:18:10;;;;;;;7.40;5.90;;;29.00;72.00;;;;;;5030990;28;20029;-77
2021/07/26 12:20:58;;;;;;;14.02;5.97;;;28.90;73.40;;;;;;5026776;28;20028;-75
2021/07/26 12:23:32;;;;;;;12.60;6.50;;;28.60;75.20;;;;;;5021380;28;20036;-73
2021/07/26 12:26:05;;;;;;;8.82;6.68;;;28.20;78.20;;;;;;5024280;28;20041;-76
2021/07/26 12:28:49;;;;;;;9.32;6.95;;;27.90;79.50;;;;;;5028399;28;20041;-75
2021/07/26 12:31:28;;;;;;;9.63;6.57;;;27.80;82.10;;;;;;5030272;28;20025;-75
2021/07/26 12:34:14;;;;;;;9.02;6.40;;;27.60;85.00;;;;;;5029063;28;20105;-75
2021/07/26 12:36:39;;;;;;;13.13;6.75;;;27.40;84.00;;;;;;5031341;28;20477;-75